sensor_id;sensor_type;location;lat;lon;timestamp;temperature;humidity
68691;DHT22;55675;49.588;8.640;2023-03-22T00:01:28;13.00;87.40
68691;DHT22;55675;49.588;8.640;2023-03-22T00:03:55;13.00;87.50
68691;DHT22;55675;49.588;8.640;2023-03-22T00:06:21;13.00;87.50
68691;DHT22;55675;49.588;8.640;2023-03-22T00:08:50;13.00;87.60
68691;DHT22;55675;49.588;8.640;2023-03-22T00:11:16;13.10;87.70
68691;DHT22;55675;49.588;8.640;2023-03-22T00:13:42;13.00;87.70
68691;DHT22;55675;49.588;8.640;2023-03-22T00:16:08;13.00;87.60
68691;DHT22;55675;49.588;8.640;2023-03-22T00:18:35;13.00;87.80
68691;DHT22;55675;49.588;8.640;2023-03-22T00:21:01;13.10;87.70
68691;DHT22;55675;49.588;8.640;2023-03-22T00:23:27;13.10;87.60
68691;DHT22;55675;49.588;8.640;2023-03-22T00:25:53;13.10;87.60
68691;DHT22;55675;49.588;8.640;2023-03-22T00:28:19;13.10;87.50
68691;DHT22;55675;49.588;8.640;2023-03-22T00:30:54;13.10;87.30
68691;DHT22;55675;49.588;8.640;2023-03-22T00:33:20;13.10;87.20
68691;DHT22;55675;49.588;8.640;2023-03-22T00:35:52;13.20;87.10
68691;DHT22;55675;49.588;8.640;2023-03-22T00:38:18;13.20;87.10
68691;DHT22;55675;49.588;8.640;2023-03-22T00:40:44;13.20;87.10
68691;DHT22;55675;49.588;8.640;2023-03-22T00:43:10;13.20;87.20
68691;DHT22;55675;49.588;8.640;2023-03-22T00:45:35;13.20;87.20
68691;DHT22;55675;49.588;8.640;2023-03-22T00:48:02;13.20;87.20
68691;DHT22;55675;49.588;8.640;2023-03-22T00:50:28;13.20;87.40
68691;DHT22;55675;49.588;8.640;2023-03-22T00:52:53;13.10;87.50
68691;DHT22;55675;49.588;8.640;2023-03-22T00:55:18;13.10;87.50
68691;DHT22;55675;49.588;8.640;2023-03-22T00:57:44;13.10;87.50
68691;DHT22;55675;49.588;8.640;2023-03-22T01:00:10;13.10;87.60
68691;DHT22;55675;49.588;8.640;2023-03-22T01:02:39;13.10;87.70
68691;DHT22;55675;49.588;8.640;2023-03-22T01:05:05;13.10;87.70
68691;DHT22;55675;49.588;8.640;2023-03-22T01:07:31;13.10;87.70
68691;DHT22;55675;49.588;8.640;2023-03-22T01:09:57;13.10;87.80
68691;DHT22;55675;49.588;8.640;2023-03-22T01:12:22;13.10;87.80
68691;DHT22;55675;49.588;8.640;2023-03-22T01:14:48;13.10;87.70
68691;DHT22;55675;49.588;8.640;2023-03-22T01:17:13;13.00;87.60
68691;DHT22;55675;49.588;8.640;2023-03-22T01:19:39;13.10;87.70
68691;DHT22;55675;49.588;8.640;2023-03-22T01:22:05;13.10;87.70
68691;DHT22;55675;49.588;8.640;2023-03-22T01:24:30;13.10;87.80
68691;DHT22;55675;49.588;8.640;2023-03-22T01:26:56;13.10;87.80
68691;DHT22;55675;49.588;8.640;2023-03-22T01:29:22;13.10;87.70
68691;DHT22;55675;49.588;8.640;2023-03-22T01:31:47;13.10;87.60
68691;DHT22;55675;49.588;8.640;2023-03-22T01:34:13;13.10;87.60
68691;DHT22;55675;49.588;8.640;2023-03-22T01:36:38;13.10;87.60
68691;DHT22;55675;49.588;8.640;2023-03-22T01:39:03;13.10;87.60
68691;DHT22;55675;49.588;8.640;2023-03-22T01:41:29;13.10;87.70
68691;DHT22;55675;49.588;8.640;2023-03-22T01:44:18;13.10;87.70
68691;DHT22;55675;49.588;8.640;2023-03-22T01:46:44;13.10;87.50
68691;DHT22;55675;49.588;8.640;2023-03-22T01:49:12;13.10;87.50
68691;DHT22;55675;49.588;8.640;2023-03-22T01:51:38;13.10;87.60
68691;DHT22;55675;49.588;8.640;2023-03-22T01:54:05;13.10;87.70
68691;DHT22;55675;49.588;8.640;2023-03-22T01:56:33;13.10;87.90
68691;DHT22;55675;49.588;8.640;2023-03-22T01:58:59;13.10;87.50
68691;DHT22;55675;49.588;8.640;2023-03-22T02:01:25;13.00;87.20
68691;DHT22;55675;49.588;8.640;2023-03-22T02:06:23;13.00;87.70
68691;DHT22;55675;49.588;8.640;2023-03-22T02:08:49;13.00;87.60
68691;DHT22;55675;49.588;8.640;2023-03-22T02:11:20;13.00;87.40
68691;DHT22;55675;49.588;8.640;2023-03-22T02:13:52;13.00;87.50
68691;DHT22;55675;49.588;8.640;2023-03-22T02:19:13;13.00;87.40
68691;DHT22;55675;49.588;8.640;2023-03-22T02:32:11;13.00;87.80
68691;DHT22;55675;49.588;8.640;2023-03-22T02:37:37;13.00;87.60
68691;DHT22;55675;49.588;8.640;2023-03-22T02:40:12;13.00;87.60
68691;DHT22;55675;49.588;8.640;2023-03-22T02:48:41;13.00;87.60
68691;DHT22;55675;49.588;8.640;2023-03-22T02:51:13;12.90;87.70
68691;DHT22;55675;49.588;8.640;2023-03-22T02:56:12;12.90;87.80
68691;DHT22;55675;49.588;8.640;2023-03-22T02:58:52;13.00;87.90
68691;DHT22;55675;49.588;8.640;2023-03-22T03:01:25;12.90;88.10
68691;DHT22;55675;49.588;8.640;2023-03-22T03:03:52;12.90;88.00
68691;DHT22;55675;49.588;8.640;2023-03-22T03:06:20;12.90;88.30
68691;DHT22;55675;49.588;8.640;2023-03-22T03:08:47;12.90;88.20
68691;DHT22;55675;49.588;8.640;2023-03-22T03:11:15;12.90;88.20
68691;DHT22;55675;49.588;8.640;2023-03-22T03:13:41;12.90;88.20
68691;DHT22;55675;49.588;8.640;2023-03-22T03:16:09;12.90;88.10
68691;DHT22;55675;49.588;8.640;2023-03-22T03:21:32;12.90;88.40
68691;DHT22;55675;49.588;8.640;2023-03-22T03:26:33;12.90;88.30
68691;DHT22;55675;49.588;8.640;2023-03-22T03:29:04;12.90;88.30
68691;DHT22;55675;49.588;8.640;2023-03-22T03:31:38;12.90;88.10
68691;DHT22;55675;49.588;8.640;2023-03-22T03:34:14;12.90;88.10
68691;DHT22;55675;49.588;8.640;2023-03-22T03:36:45;12.90;88.10
68691;DHT22;55675;49.588;8.640;2023-03-22T03:39:11;12.90;87.90
68691;DHT22;55675;49.588;8.640;2023-03-22T03:41:39;13.00;87.90
68691;DHT22;55675;49.588;8.640;2023-03-22T03:44:07;13.00;88.00
68691;DHT22;55675;49.588;8.640;2023-03-22T03:46:33;13.00;87.90
68691;DHT22;55675;49.588;8.640;2023-03-22T03:48:59;13.00;88.00
68691;DHT22;55675;49.588;8.640;2023-03-22T03:51:25;13.00;88.00
68691;DHT22;55675;49.588;8.640;2023-03-22T03:53:51;12.90;88.00
68691;DHT22;55675;49.588;8.640;2023-03-22T03:56:16;12.90;88.20
68691;DHT22;55675;49.588;8.640;2023-03-22T03:58:42;12.80;88.30
68691;DHT22;55675;49.588;8.640;2023-03-22T04:01:07;12.80;88.50
68691;DHT22;55675;49.588;8.640;2023-03-22T04:03:33;12.70;88.50
68691;DHT22;55675;49.588;8.640;2023-03-22T04:05:58;12.70;88.70
68691;DHT22;55675;49.588;8.640;2023-03-22T04:08:24;12.60;88.70
68691;DHT22;55675;49.588;8.640;2023-03-22T04:10:50;12.50;88.70
68691;DHT22;55675;49.588;8.640;2023-03-22T04:13:16;12.50;88.70
68691;DHT22;55675;49.588;8.640;2023-03-22T04:15:41;12.50;88.90
68691;DHT22;55675;49.588;8.640;2023-03-22T04:18:07;12.50;88.80
68691;DHT22;55675;49.588;8.640;2023-03-22T04:20:33;12.40;89.50
68691;DHT22;55675;49.588;8.640;2023-03-22T04:22:59;12.40;88.80
68691;DHT22;55675;49.588;8.640;2023-03-22T04:25:24;12.40;89.30
68691;DHT22;55675;49.588;8.640;2023-03-22T04:27:54;12.40;88.30
68691;DHT22;55675;49.588;8.640;2023-03-22T04:30:20;12.40;88.40
68691;DHT22;55675;49.588;8.640;2023-03-22T04:32:47;12.30;88.40
68691;DHT22;55675;49.588;8.640;2023-03-22T04:35:13;12.20;88.70
68691;DHT22;55675;49.588;8.640;2023-03-22T04:37:38;12.10;88.60
68691;DHT22;55675;49.588;8.640;2023-03-22T04:40:06;12.10;88.70
68691;DHT22;55675;49.588;8.640;2023-03-22T04:42:33;12.00;89.10
68691;DHT22;55675;49.588;8.640;2023-03-22T04:44:58;12.00;89.40
68691;DHT22;55675;49.588;8.640;2023-03-22T04:47:24;11.90;89.60
68691;DHT22;55675;49.588;8.640;2023-03-22T04:49:50;11.90;89.70
68691;DHT22;55675;49.588;8.640;2023-03-22T04:52:15;11.80;89.80
68691;DHT22;55675;49.588;8.640;2023-03-22T04:54:41;11.80;89.90
68691;DHT22;55675;49.588;8.640;2023-03-22T04:57:06;11.80;90.00
68691;DHT22;55675;49.588;8.640;2023-03-22T04:59:32;11.70;90.00
68691;DHT22;55675;49.588;8.640;2023-03-22T05:01:57;11.70;90.20
68691;DHT22;55675;49.588;8.640;2023-03-22T05:04:23;11.60;90.20
68691;DHT22;55675;49.588;8.640;2023-03-22T05:06:48;11.50;90.40
68691;DHT22;55675;49.588;8.640;2023-03-22T05:09:14;11.40;90.40
68691;DHT22;55675;49.588;8.640;2023-03-22T05:11:39;11.40;90.50
68691;DHT22;55675;49.588;8.640;2023-03-22T05:14:06;11.30;90.60
68691;DHT22;55675;49.588;8.640;2023-03-22T05:16:31;11.20;90.70
68691;DHT22;55675;49.588;8.640;2023-03-22T05:18:57;11.20;90.80
68691;DHT22;55675;49.588;8.640;2023-03-22T05:21:23;11.10;90.90
68691;DHT22;55675;49.588;8.640;2023-03-22T05:24:01;11.10;91.00
68691;DHT22;55675;49.588;8.640;2023-03-22T05:26:26;11.00;91.20
68691;DHT22;55675;49.588;8.640;2023-03-22T05:28:52;11.00;91.30
68691;DHT22;55675;49.588;8.640;2023-03-22T05:31:18;10.90;91.30
68691;DHT22;55675;49.588;8.640;2023-03-22T05:33:46;10.90;91.40
68691;DHT22;55675;49.588;8.640;2023-03-22T05:36:12;10.80;91.30
68691;DHT22;55675;49.588;8.640;2023-03-22T05:38:37;10.90;91.40
68691;DHT22;55675;49.588;8.640;2023-03-22T05:41:03;10.80;91.40
68691;DHT22;55675;49.588;8.640;2023-03-22T05:43:28;10.80;91.40
68691;DHT22;55675;49.588;8.640;2023-03-22T05:45:53;10.80;91.50
68691;DHT22;55675;49.588;8.640;2023-03-22T05:48:19;10.80;91.60
68691;DHT22;55675;49.588;8.640;2023-03-22T05:50:45;10.80;91.60
68691;DHT22;55675;49.588;8.640;2023-03-22T05:53:10;10.80;91.70
68691;DHT22;55675;49.588;8.640;2023-03-22T05:55:36;10.80;91.70
68691;DHT22;55675;49.588;8.640;2023-03-22T05:58:01;10.80;91.70
68691;DHT22;55675;49.588;8.640;2023-03-22T06:00:27;10.70;91.70
68691;DHT22;55675;49.588;8.640;2023-03-22T06:02:56;10.70;91.80
68691;DHT22;55675;49.588;8.640;2023-03-22T06:05:24;10.70;91.80
68691;DHT22;55675;49.588;8.640;2023-03-22T06:07:50;10.80;91.80
68691;DHT22;55675;49.588;8.640;2023-03-22T06:10:16;10.80;91.80
68691;DHT22;55675;49.588;8.640;2023-03-22T06:12:42;10.90;91.80
68691;DHT22;55675;49.588;8.640;2023-03-22T06:15:08;10.90;91.80
68691;DHT22;55675;49.588;8.640;2023-03-22T06:17:34;10.90;91.80
68691;DHT22;55675;49.588;8.640;2023-03-22T06:20:00;11.00;91.70
68691;DHT22;55675;49.588;8.640;2023-03-22T06:22:25;11.00;91.70
68691;DHT22;55675;49.588;8.640;2023-03-22T06:24:51;11.10;91.70
68691;DHT22;55675;49.588;8.640;2023-03-22T06:27:16;11.10;91.60
68691;DHT22;55675;49.588;8.640;2023-03-22T06:29:42;11.20;91.50
68691;DHT22;55675;49.588;8.640;2023-03-22T06:32:08;11.30;91.40
68691;DHT22;55675;49.588;8.640;2023-03-22T06:34:33;11.30;91.30
68691;DHT22;55675;49.588;8.640;2023-03-22T06:36:59;11.40;91.20
68691;DHT22;55675;49.588;8.640;2023-03-22T06:39:25;11.40;91.20
68691;DHT22;55675;49.588;8.640;2023-03-22T06:41:50;11.50;91.00
68691;DHT22;55675;49.588;8.640;2023-03-22T06:44:16;11.60;90.90
68691;DHT22;55675;49.588;8.640;2023-03-22T06:46:42;11.70;90.90
68691;DHT22;55675;49.588;8.640;2023-03-22T06:49:07;11.70;90.80
68691;DHT22;55675;49.588;8.640;2023-03-22T06:51:33;11.80;90.70
68691;DHT22;55675;49.588;8.640;2023-03-22T06:53:58;11.90;90.60
68691;DHT22;55675;49.588;8.640;2023-03-22T06:56:24;12.00;90.50
68691;DHT22;55675;49.588;8.640;2023-03-22T06:58:50;12.00;90.30
68691;DHT22;55675;49.588;8.640;2023-03-22T07:01:22;12.10;90.30
68691;DHT22;55675;49.588;8.640;2023-03-22T07:03:48;12.10;90.20
68691;DHT22;55675;49.588;8.640;2023-03-22T07:06:13;12.20;90.10
68691;DHT22;55675;49.588;8.640;2023-03-22T07:08:39;12.20;90.00
68691;DHT22;55675;49.588;8.640;2023-03-22T07:11:04;12.30;90.00
68691;DHT22;55675;49.588;8.640;2023-03-22T07:13:30;12.50;90.00
68691;DHT22;55675;49.588;8.640;2023-03-22T07:15:59;12.50;89.80
68691;DHT22;55675;49.588;8.640;2023-03-22T07:18:25;12.60;89.60
68691;DHT22;55675;49.588;8.640;2023-03-22T07:20:51;12.70;89.40
68691;DHT22;55675;49.588;8.640;2023-03-22T07:23:16;12.80;88.70
68691;DHT22;55675;49.588;8.640;2023-03-22T07:25:42;12.90;87.30
68691;DHT22;55675;49.588;8.640;2023-03-22T07:28:08;13.00;87.50
68691;DHT22;55675;49.588;8.640;2023-03-22T07:30:35;13.00;87.00
68691;DHT22;55675;49.588;8.640;2023-03-22T07:33:02;13.00;87.20
68691;DHT22;55675;49.588;8.640;2023-03-22T07:35:27;13.00;86.90
68691;DHT22;55675;49.588;8.640;2023-03-22T07:37:53;13.00;86.70
68691;DHT22;55675;49.588;8.640;2023-03-22T07:40:19;13.10;86.60
68691;DHT22;55675;49.588;8.640;2023-03-22T07:42:46;13.00;86.50
68691;DHT22;55675;49.588;8.640;2023-03-22T07:45:12;13.00;86.80
68691;DHT22;55675;49.588;8.640;2023-03-22T07:47:37;13.10;86.30
68691;DHT22;55675;49.588;8.640;2023-03-22T07:50:03;13.10;86.20
68691;DHT22;55675;49.588;8.640;2023-03-22T07:52:28;13.10;86.40
68691;DHT22;55675;49.588;8.640;2023-03-22T07:54:54;13.10;86.10
68691;DHT22;55675;49.588;8.640;2023-03-22T07:57:19;13.10;86.10
68691;DHT22;55675;49.588;8.640;2023-03-22T07:59:45;13.20;85.40
68691;DHT22;55675;49.588;8.640;2023-03-22T08:02:10;13.30;85.00
68691;DHT22;55675;49.588;8.640;2023-03-22T08:04:36;13.30;84.50
68691;DHT22;55675;49.588;8.640;2023-03-22T08:07:01;13.40;84.90
68691;DHT22;55675;49.588;8.640;2023-03-22T08:09:26;13.50;84.20
68691;DHT22;55675;49.588;8.640;2023-03-22T08:11:52;13.50;84.20
68691;DHT22;55675;49.588;8.640;2023-03-22T08:14:17;13.60;84.30
68691;DHT22;55675;49.588;8.640;2023-03-22T08:16:43;13.70;84.60
68691;DHT22;55675;49.588;8.640;2023-03-22T08:19:11;13.90;84.70
68691;DHT22;55675;49.588;8.640;2023-03-22T08:21:37;14.20;83.30
68691;DHT22;55675;49.588;8.640;2023-03-22T08:24:03;14.50;82.70
68691;DHT22;55675;49.588;8.640;2023-03-22T08:26:28;14.80;81.30
68691;DHT22;55675;49.588;8.640;2023-03-22T08:28:54;14.90;80.60
68691;DHT22;55675;49.588;8.640;2023-03-22T08:31:20;15.00;80.40
68691;DHT22;55675;49.588;8.640;2023-03-22T08:33:46;15.10;80.20
68691;DHT22;55675;49.588;8.640;2023-03-22T08:36:13;15.10;80.20
68691;DHT22;55675;49.588;8.640;2023-03-22T08:38:40;15.20;79.80
68691;DHT22;55675;49.588;8.640;2023-03-22T08:41:10;15.40;79.20
68691;DHT22;55675;49.588;8.640;2023-03-22T08:43:35;15.60;79.00
68691;DHT22;55675;49.588;8.640;2023-03-22T08:46:01;15.90;78.30
68691;DHT22;55675;49.588;8.640;2023-03-22T08:48:26;16.10;78.00
68691;DHT22;55675;49.588;8.640;2023-03-22T08:50:54;16.40;77.30
68691;DHT22;55675;49.588;8.640;2023-03-22T08:53:20;16.60;75.70
68691;DHT22;55675;49.588;8.640;2023-03-22T08:55:45;16.70;74.30
68691;DHT22;55675;49.588;8.640;2023-03-22T08:58:11;16.90;74.90
68691;DHT22;55675;49.588;8.640;2023-03-22T09:00:37;16.90;74.40
68691;DHT22;55675;49.588;8.640;2023-03-22T09:03:03;17.00;73.50
68691;DHT22;55675;49.588;8.640;2023-03-22T09:05:29;17.00;72.70
68691;DHT22;55675;49.588;8.640;2023-03-22T09:07:54;16.90;72.00
68691;DHT22;55675;49.588;8.640;2023-03-22T09:10:20;16.90;72.70
68691;DHT22;55675;49.588;8.640;2023-03-22T09:12:46;16.90;72.70
68691;DHT22;55675;49.588;8.640;2023-03-22T09:15:14;16.90;72.70
68691;DHT22;55675;49.588;8.640;2023-03-22T09:17:47;16.80;73.10
68691;DHT22;55675;49.588;8.640;2023-03-22T09:20:15;16.90;72.70
68691;DHT22;55675;49.588;8.640;2023-03-22T09:22:43;17.00;73.20
68691;DHT22;55675;49.588;8.640;2023-03-22T09:25:09;17.10;72.80
68691;DHT22;55675;49.588;8.640;2023-03-22T09:27:37;17.20;72.80
68691;DHT22;55675;49.588;8.640;2023-03-22T09:30:02;17.40;73.50
68691;DHT22;55675;49.588;8.640;2023-03-22T09:32:28;17.50;73.10
68691;DHT22;55675;49.588;8.640;2023-03-22T09:34:53;17.60;72.30
68691;DHT22;55675;49.588;8.640;2023-03-22T09:37:19;17.80;70.20
68691;DHT22;55675;49.588;8.640;2023-03-22T09:39:45;17.80;69.40
68691;DHT22;55675;49.588;8.640;2023-03-22T09:45:13;17.90;69.20
68691;DHT22;55675;49.588;8.640;2023-03-22T09:47:40;18.10;66.80
68691;DHT22;55675;49.588;8.640;2023-03-22T09:50:51;18.20;67.00
68691;DHT22;55675;49.588;8.640;2023-03-22T09:52:56;18.20;64.30
68691;DHT22;55675;49.588;8.640;2023-03-22T10:00:37;18.50;65.40
68691;DHT22;55675;49.588;8.640;2023-03-22T10:05:39;18.60;60.90
68691;DHT22;55675;49.588;8.640;2023-03-22T10:10:32;18.70;63.20
68691;DHT22;55675;49.588;8.640;2023-03-22T10:13:06;18.70;62.90
68691;DHT22;55675;49.588;8.640;2023-03-22T10:18:34;18.60;63.50
68691;DHT22;55675;49.588;8.640;2023-03-22T10:26:01;18.00;62.70
68691;DHT22;55675;49.588;8.640;2023-03-22T10:28:37;17.80;63.70
68691;DHT22;55675;49.588;8.640;2023-03-22T10:31:04;17.70;65.10
68691;DHT22;55675;49.588;8.640;2023-03-22T10:33:37;17.60;64.30
68691;DHT22;55675;49.588;8.640;2023-03-22T10:36:04;17.40;65.40
68691;DHT22;55675;49.588;8.640;2023-03-22T10:38:30;17.40;65.80
68691;DHT22;55675;49.588;8.640;2023-03-22T10:40:57;17.30;66.70
68691;DHT22;55675;49.588;8.640;2023-03-22T10:45:49;17.40;67.80
68691;DHT22;55675;49.588;8.640;2023-03-22T10:48:19;17.50;67.70
68691;DHT22;55675;49.588;8.640;2023-03-22T10:50:48;17.50;67.90
68691;DHT22;55675;49.588;8.640;2023-03-22T10:53:25;17.50;66.70
68691;DHT22;55675;49.588;8.640;2023-03-22T10:55:52;17.60;66.90
68691;DHT22;55675;49.588;8.640;2023-03-22T10:58:18;17.70;67.30
68691;DHT22;55675;49.588;8.640;2023-03-22T11:05:56;18.10;65.80
68691;DHT22;55675;49.588;8.640;2023-03-22T11:08:22;18.30;65.80
68691;DHT22;55675;49.588;8.640;2023-03-22T11:10:50;18.40;64.60
68691;DHT22;55675;49.588;8.640;2023-03-22T11:13:18;18.50;63.90
68691;DHT22;55675;49.588;8.640;2023-03-22T11:15:50;18.70;63.80
68691;DHT22;55675;49.588;8.640;2023-03-22T11:18:16;18.80;62.70
68691;DHT22;55675;49.588;8.640;2023-03-22T11:20:50;19.10;63.10
68691;DHT22;55675;49.588;8.640;2023-03-22T11:23:16;19.30;61.70
68691;DHT22;55675;49.588;8.640;2023-03-22T11:25:44;19.50;62.30
68691;DHT22;55675;49.588;8.640;2023-03-22T11:28:18;19.70;61.30
68691;DHT22;55675;49.588;8.640;2023-03-22T11:30:56;19.90;62.30
68691;DHT22;55675;49.588;8.640;2023-03-22T11:33:22;20.00;59.10
68691;DHT22;55675;49.588;8.640;2023-03-22T11:35:56;20.10;59.50
68691;DHT22;55675;49.588;8.640;2023-03-22T11:41:01;20.30;58.90
68691;DHT22;55675;49.588;8.640;2023-03-22T11:43:30;20.40;59.40
68691;DHT22;55675;49.588;8.640;2023-03-22T11:45:57;20.60;57.50
68691;DHT22;55675;49.588;8.640;2023-03-22T11:48:23;20.80;56.10
68691;DHT22;55675;49.588;8.640;2023-03-22T11:50:51;20.90;57.20
68691;DHT22;55675;49.588;8.640;2023-03-22T11:53:18;21.00;56.50
68691;DHT22;55675;49.588;8.640;2023-03-22T11:55:46;20.90;55.00
68691;DHT22;55675;49.588;8.640;2023-03-22T12:00:47;21.10;56.00
68691;DHT22;55675;49.588;8.640;2023-03-22T12:03:17;21.10;55.40
68691;DHT22;55675;49.588;8.640;2023-03-22T12:05:45;21.30;54.30
68691;DHT22;55675;49.588;8.640;2023-03-22T12:11:05;21.60;55.20
68691;DHT22;55675;49.588;8.640;2023-03-22T12:16:08;21.80;54.00
68691;DHT22;55675;49.588;8.640;2023-03-22T12:21:10;21.50;51.00
68691;DHT22;55675;49.588;8.640;2023-03-22T12:23:36;21.30;53.00
68691;DHT22;55675;49.588;8.640;2023-03-22T12:26:05;21.30;53.30
68691;DHT22;55675;49.588;8.640;2023-03-22T12:28:33;21.30;52.80
68691;DHT22;55675;49.588;8.640;2023-03-22T12:30:59;21.20;53.10
68691;DHT22;55675;49.588;8.640;2023-03-22T12:33:42;21.30;53.90
68691;DHT22;55675;49.588;8.640;2023-03-22T12:36:09;21.60;53.20
68691;DHT22;55675;49.588;8.640;2023-03-22T12:38:47;21.60;53.30
68691;DHT22;55675;49.588;8.640;2023-03-22T12:41:15;21.70;52.90
68691;DHT22;55675;49.588;8.640;2023-03-22T12:43:46;22.10;53.10
68691;DHT22;55675;49.588;8.640;2023-03-22T12:46:35;22.30;53.50
68691;DHT22;55675;49.588;8.640;2023-03-22T12:49:02;22.50;52.20
68691;DHT22;55675;49.588;8.640;2023-03-22T12:51:29;22.70;50.80
68691;DHT22;55675;49.588;8.640;2023-03-22T12:53:55;22.90;50.20
68691;DHT22;55675;49.588;8.640;2023-03-22T12:56:32;23.00;49.70
68691;DHT22;55675;49.588;8.640;2023-03-22T12:59:02;23.00;49.60
68691;DHT22;55675;49.588;8.640;2023-03-22T13:01:30;23.10;49.10
68691;DHT22;55675;49.588;8.640;2023-03-22T13:03:57;23.30;49.00
68691;DHT22;55675;49.588;8.640;2023-03-22T13:11:39;23.70;45.00
68691;DHT22;55675;49.588;8.640;2023-03-22T13:14:05;23.60;43.60
68691;DHT22;55675;49.588;8.640;2023-03-22T13:19:27;23.20;43.40
68691;DHT22;55675;49.588;8.640;2023-03-22T13:22:13;23.20;42.50
68691;DHT22;55675;49.588;8.640;2023-03-22T13:27:32;23.20;42.40
68691;DHT22;55675;49.588;8.640;2023-03-22T13:29:59;23.10;40.20
68691;DHT22;55675;49.588;8.640;2023-03-22T13:32:29;22.90;41.00
68691;DHT22;55675;49.588;8.640;2023-03-22T13:34:57;22.80;39.70
68691;DHT22;55675;49.588;8.640;2023-03-22T13:37:33;22.70;40.40
68691;DHT22;55675;49.588;8.640;2023-03-22T13:40:00;22.60;39.70
68691;DHT22;55675;49.588;8.640;2023-03-22T13:42:31;22.70;40.70
68691;DHT22;55675;49.588;8.640;2023-03-22T13:44:58;23.40;40.80
68691;DHT22;55675;49.588;8.640;2023-03-22T13:47:32;25.30;39.50
68691;DHT22;55675;49.588;8.640;2023-03-22T13:50:02;27.10;36.00
68691;DHT22;55675;49.588;8.640;2023-03-22T13:52:50;28.60;31.00
68691;DHT22;55675;49.588;8.640;2023-03-22T13:58:08;29.80;27.50
68691;DHT22;55675;49.588;8.640;2023-03-22T14:00:37;30.60;28.00
68691;DHT22;55675;49.588;8.640;2023-03-22T14:03:16;31.40;26.10
68691;DHT22;55675;49.588;8.640;2023-03-22T14:05:45;32.00;24.40
68691;DHT22;55675;49.588;8.640;2023-03-22T14:08:20;32.60;24.20
68691;DHT22;55675;49.588;8.640;2023-03-22T14:10:55;33.60;24.00
68691;DHT22;55675;49.588;8.640;2023-03-22T14:13:30;34.20;22.10
68691;DHT22;55675;49.588;8.640;2023-03-22T14:16:18;34.70;22.00
68691;DHT22;55675;49.588;8.640;2023-03-22T14:18:47;35.00;21.00
68691;DHT22;55675;49.588;8.640;2023-03-22T14:21:37;34.80;21.10
68691;DHT22;55675;49.588;8.640;2023-03-22T14:24:03;35.00;21.50
68691;DHT22;55675;49.588;8.640;2023-03-22T14:26:35;34.80;20.40
68691;DHT22;55675;49.588;8.640;2023-03-22T14:29:18;34.00;21.00
68691;DHT22;55675;49.588;8.640;2023-03-22T14:31:45;33.30;21.70
68691;DHT22;55675;49.588;8.640;2023-03-22T14:34:17;32.40;22.00
68691;DHT22;55675;49.588;8.640;2023-03-22T14:36:46;31.50;23.40
68691;DHT22;55675;49.588;8.640;2023-03-22T14:39:20;30.60;24.00
68691;DHT22;55675;49.588;8.640;2023-03-22T14:44:48;29.00;25.60
68691;DHT22;55675;49.588;8.640;2023-03-22T14:49:49;28.20;27.10
68691;DHT22;55675;49.588;8.640;2023-03-22T14:52:26;28.60;27.70
68691;DHT22;55675;49.588;8.640;2023-03-22T14:54:55;29.00;27.00
68691;DHT22;55675;49.588;8.640;2023-03-22T14:57:31;29.70;26.10
68691;DHT22;55675;49.588;8.640;2023-03-22T14:59:58;30.40;25.30
68691;DHT22;55675;49.588;8.640;2023-03-22T15:05:00;31.30;25.00
68691;DHT22;55675;49.588;8.640;2023-03-22T15:07:28;31.80;25.30
68691;DHT22;55675;49.588;8.640;2023-03-22T15:10:10;32.30;23.80
68691;DHT22;55675;49.588;8.640;2023-03-22T15:12:36;32.00;23.90
68691;DHT22;55675;49.588;8.640;2023-03-22T15:15:01;31.30;24.60
68691;DHT22;55675;49.588;8.640;2023-03-22T15:17:27;31.50;25.00
68691;DHT22;55675;49.588;8.640;2023-03-22T15:19:55;32.20;24.60
68691;DHT22;55675;49.588;8.640;2023-03-22T15:22:20;33.10;23.80
68691;DHT22;55675;49.588;8.640;2023-03-22T15:24:50;33.90;23.90
68691;DHT22;55675;49.588;8.640;2023-03-22T15:27:16;34.70;23.40
68691;DHT22;55675;49.588;8.640;2023-03-22T15:29:43;35.00;23.30
68691;DHT22;55675;49.588;8.640;2023-03-22T15:32:20;34.80;22.50
68691;DHT22;55675;49.588;8.640;2023-03-22T15:34:48;33.90;23.00
68691;DHT22;55675;49.588;8.640;2023-03-22T15:37:27;32.90;23.30
68691;DHT22;55675;49.588;8.640;2023-03-22T15:39:54;31.90;24.20
68691;DHT22;55675;49.588;8.640;2023-03-22T15:42:39;31.00;24.70
68691;DHT22;55675;49.588;8.640;2023-03-22T15:45:21;30.00;25.00
68691;DHT22;55675;49.588;8.640;2023-03-22T15:50:35;28.00;27.50
68691;DHT22;55675;49.588;8.640;2023-03-22T15:53:02;26.90;28.90
68691;DHT22;55675;49.588;8.640;2023-03-22T15:55:32;25.90;29.30
68691;DHT22;55675;49.588;8.640;2023-03-22T15:57:58;25.00;29.80
68691;DHT22;55675;49.588;8.640;2023-03-22T16:00:31;24.40;31.60
68691;DHT22;55675;49.588;8.640;2023-03-22T16:05:42;23.40;34.00
68691;DHT22;55675;49.588;8.640;2023-03-22T16:08:08;22.90;34.80
68691;DHT22;55675;49.588;8.640;2023-03-22T16:10:35;22.50;36.00
68691;DHT22;55675;49.588;8.640;2023-03-22T16:13:02;22.10;36.90
68691;DHT22;55675;49.588;8.640;2023-03-22T16:15:33;21.70;36.80
68691;DHT22;55675;49.588;8.640;2023-03-22T16:17:59;21.40;37.70
68691;DHT22;55675;49.588;8.640;2023-03-22T16:20:25;21.10;38.60
68691;DHT22;55675;49.588;8.640;2023-03-22T16:22:56;20.80;39.90
68691;DHT22;55675;49.588;8.640;2023-03-22T16:25:23;20.60;40.20
68691;DHT22;55675;49.588;8.640;2023-03-22T16:27:50;20.40;40.40
68691;DHT22;55675;49.588;8.640;2023-03-22T16:30:16;20.20;41.30
68691;DHT22;55675;49.588;8.640;2023-03-22T16:32:42;20.00;41.70
68691;DHT22;55675;49.588;8.640;2023-03-22T16:35:17;19.80;42.00
68691;DHT22;55675;49.588;8.640;2023-03-22T16:37:43;19.60;42.60
68691;DHT22;55675;49.588;8.640;2023-03-22T16:40:13;19.50;43.00
68691;DHT22;55675;49.588;8.640;2023-03-22T16:42:38;19.40;43.30
68691;DHT22;55675;49.588;8.640;2023-03-22T16:45:08;19.30;43.70
68691;DHT22;55675;49.588;8.640;2023-03-22T16:47:34;19.30;44.10
68691;DHT22;55675;49.588;8.640;2023-03-22T16:50:00;19.20;44.30
68691;DHT22;55675;49.588;8.640;2023-03-22T16:52:25;19.20;44.40
68691;DHT22;55675;49.588;8.640;2023-03-22T16:54:52;19.20;44.30
68691;DHT22;55675;49.588;8.640;2023-03-22T16:57:19;19.20;44.90
68691;DHT22;55675;49.588;8.640;2023-03-22T16:59:45;19.10;45.30
68691;DHT22;55675;49.588;8.640;2023-03-22T17:02:23;19.10;46.10
68691;DHT22;55675;49.588;8.640;2023-03-22T17:04:48;19.10;45.80
68691;DHT22;55675;49.588;8.640;2023-03-22T17:07:15;19.00;45.60
68691;DHT22;55675;49.588;8.640;2023-03-22T17:09:41;18.90;45.70
68691;DHT22;55675;49.588;8.640;2023-03-22T17:12:10;18.90;45.80
68691;DHT22;55675;49.588;8.640;2023-03-22T17:14:38;18.90;45.90
68691;DHT22;55675;49.588;8.640;2023-03-22T17:17:03;18.90;46.20